Terminal Aerodrome Forecast
Issued by NWS

Home | Current Version | Previous Version | Graphics & Text | Print | Product List | Glossary On
Versions: 1 2 3 4 5 6 7 8 9 10 11 12 13 14 15 16
000
FTUS45 KRIW 222321
TAFBPI
TAF
KBPI 222321Z 2300/2324 VRB05KT P6SM SCT050
     FM230900 05005KT P6SM VCFG SCT005 BKN040 BKN150
     FM231700 10006KT P6SM SCT040 SCT150=

USA.gov is the U.S. government's official web portal to all federal, state and local government web resources and services.